CSTRJ LIMP-EDDS
Flight info
| Callsign | CSTRJ |
|---|---|
| Flight time | 0h 54m |
| Altitude | 18000 |
| Route | MISPO L995 PEPAG N851 ROLSA/N0360F170 N851 VEDOK/N0355F160 N851 HEUSE/N0349F150 DCT REUTL REUTL1W |
| Aircraft | A321/M-SDE3FGHIRWY/LB1 |
Departure
| Time | 2026-05-04 18:50 |
|---|---|
| Airport | Parma Airport (LIMP) |
Arrival
| Time | 2026-05-04 19:45 |
|---|---|
| Airport | Stuttgart Airport (EDDS) |
| Time | Latitude | Longitude | Altitude | Speed | Heading |
|---|---|---|---|---|---|
| 2026-05-04 18:33 | 44.82042 | 10.29766 | 163 ft | 0 kts | 153° |
| 2026-05-04 18:46 | 44.82041 | 10.29767 | 163 ft | 0 kts | 153° |
| 2026-05-04 18:46 | 44.82036 | 10.29767 | 163 ft | 0 kts | 195° |
| 2026-05-04 18:46 | 44.82029 | 10.29741 | 163 ft | 4 kts | 253° |
| 2026-05-04 18:46 | 44.82006 | 10.29689 | 163 ft | 12 kts | 224° |
| 2026-05-04 18:47 | 44.81944 | 10.29557 | 164 ft | 16 kts | 242° |
| 2026-05-04 18:47 | 44.81908 | 10.29415 | 164 ft | 12 kts | 302° |
| 2026-05-04 18:47 | 44.81997 | 10.29415 | 164 ft | 17 kts | 21° |
| 2026-05-04 18:47 | 44.82144 | 10.29484 | 163 ft | 25 kts | 14° |
| 2026-05-04 18:48 | 44.82380 | 10.29585 | 161 ft | 40 kts | 17° |
| 2026-05-04 18:48 | 44.82641 | 10.29696 | 158 ft | 37 kts | 19° |
| 2026-05-04 18:48 | 44.82881 | 10.29804 | 157 ft | 34 kts | 16° |
| 2026-05-04 18:48 | 44.83107 | 10.29894 | 155 ft | 32 kts | 8° |
| 2026-05-04 18:49 | 44.83308 | 10.29986 | 154 ft | 29 kts | 20° |
| 2026-05-04 18:49 | 44.83493 | 10.30075 | 154 ft | 25 kts | 15° |
| 2026-05-04 18:49 | 44.83569 | 10.30099 | 154 ft | 5 kts | 205° |
| 2026-05-04 18:49 | 44.83531 | 10.30092 | 154 ft | 21 kts | 203° |
| 2026-05-04 18:50 | 44.83144 | 10.29916 | 155 ft | 94 kts | 197° |
| 2026-05-04 18:50 | 44.82300 | 10.29544 | 162 ft | 156 kts | 198° |
| 2026-05-04 18:50 | 44.81215 | 10.29055 | 658 ft | 164 kts | 199° |
| 2026-05-04 18:50 | 44.80139 | 10.28567 | 1278 ft | 167 kts | 199° |
| 2026-05-04 18:51 | 44.79004 | 10.28410 | 1855 ft | 170 kts | 162° |
| 2026-05-04 18:51 | 44.78044 | 10.29408 | 2221 ft | 177 kts | 121° |
| 2026-05-04 18:51 | 44.77728 | 10.31099 | 2460 ft | 185 kts | 83° |
| 2026-05-04 18:51 | 44.78234 | 10.32776 | 2704 ft | 194 kts | 45° |
| 2026-05-04 18:52 | 44.79428 | 10.33647 | 2955 ft | 204 kts | 5° |
| 2026-05-04 18:52 | 44.80836 | 10.33115 | 3163 ft | 223 kts | 321° |
| 2026-05-04 18:52 | 44.81736 | 10.31330 | 3634 ft | 231 kts | 295° |
| 2026-05-04 18:52 | 44.82505 | 10.29353 | 4267 ft | 234 kts | 308° |
| 2026-05-04 18:53 | 44.83708 | 10.27733 | 4745 ft | 247 kts | 321° |
| 2026-05-04 18:53 | 44.85126 | 10.26208 | 5126 ft | 264 kts | 323° |
| 2026-05-04 18:53 | 44.86642 | 10.24639 | 5608 ft | 278 kts | 323° |
| 2026-05-04 18:53 | 44.88193 | 10.23034 | 6299 ft | 283 kts | 323° |
| 2026-05-04 18:54 | 44.89797 | 10.21362 | 7067 ft | 286 kts | 322° |
| 2026-05-04 18:54 | 44.91394 | 10.19688 | 7807 ft | 291 kts | 322° |
| 2026-05-04 18:54 | 44.93017 | 10.17978 | 8570 ft | 294 kts | 322° |
| 2026-05-04 18:54 | 44.94669 | 10.16232 | 9337 ft | 298 kts | 322° |
| 2026-05-04 18:55 | 44.96326 | 10.14483 | 10022 ft | 301 kts | 322° |
| 2026-05-04 18:55 | 44.99790 | 10.10815 | 10974 ft | 325 kts | 322° |
| 2026-05-04 18:55 | 45.01664 | 10.08825 | 11290 ft | 342 kts | 322° |
| 2026-05-04 18:56 | 45.03609 | 10.06767 | 11749 ft | 352 kts | 322° |
| 2026-05-04 18:56 | 45.05580 | 10.04688 | 12398 ft | 355 kts | 322° |
| 2026-05-04 18:56 | 45.07554 | 10.02608 | 13116 ft | 356 kts | 322° |
| 2026-05-04 18:56 | 45.09558 | 10.00493 | 13805 ft | 359 kts | 322° |
| 2026-05-04 18:57 | 45.11553 | 9.98385 | 14438 ft | 362 kts | 322° |
| 2026-05-04 18:57 | 45.13565 | 9.96258 | 15033 ft | 365 kts | 321° |
| 2026-05-04 18:57 | 45.15614 | 9.94091 | 15591 ft | 368 kts | 321° |
| 2026-05-04 18:57 | 45.17680 | 9.91905 | 16161 ft | 372 kts | 321° |
| 2026-05-04 18:58 | 45.19745 | 9.89716 | 16747 ft | 375 kts | 321° |
| 2026-05-04 18:58 | 45.21831 | 9.87502 | 17288 ft | 377 kts | 321° |
| 2026-05-04 18:58 | 45.23959 | 9.85238 | 17806 ft | 381 kts | 321° |
| 2026-05-04 18:58 | 45.26065 | 9.82994 | 18053 ft | 382 kts | 321° |
| 2026-05-04 18:59 | 45.28190 | 9.80728 | 18060 ft | 382 kts | 321° |
| 2026-05-04 18:59 | 45.30315 | 9.78462 | 18054 ft | 382 kts | 321° |
| 2026-05-04 18:59 | 45.32441 | 9.76193 | 18057 ft | 381 kts | 321° |
| 2026-05-04 18:59 | 45.34531 | 9.73946 | 18069 ft | 381 kts | 320° |
| 2026-05-04 19:00 | 45.36641 | 9.71666 | 18079 ft | 380 kts | 320° |
| 2026-05-04 19:00 | 45.38757 | 9.69374 | 18052 ft | 380 kts | 320° |
| 2026-05-04 19:00 | 45.40861 | 9.67095 | 18051 ft | 380 kts | 320° |
| 2026-05-04 19:00 | 45.42976 | 9.64801 | 18048 ft | 380 kts | 320° |
| 2026-05-04 19:01 | 45.45080 | 9.62518 | 18064 ft | 380 kts | 320° |
| 2026-05-04 19:01 | 45.47169 | 9.60249 | 18061 ft | 380 kts | 320° |
| 2026-05-04 19:01 | 45.49285 | 9.57950 | 18064 ft | 380 kts | 320° |
| 2026-05-04 19:01 | 45.51387 | 9.55662 | 18069 ft | 380 kts | 320° |
| 2026-05-04 19:02 | 45.53466 | 9.53396 | 18073 ft | 380 kts | 320° |
| 2026-05-04 19:02 | 45.55560 | 9.51114 | 18075 ft | 380 kts | 320° |
| 2026-05-04 19:02 | 45.57716 | 9.48839 | 18078 ft | 381 kts | 322° |
| 2026-05-04 19:02 | 45.59880 | 9.46642 | 18081 ft | 381 kts | 322° |
| 2026-05-04 19:03 | 45.62024 | 9.44477 | 18084 ft | 381 kts | 322° |
| 2026-05-04 19:03 | 45.64194 | 9.42281 | 18081 ft | 381 kts | 322° |
| 2026-05-04 19:03 | 45.66375 | 9.40067 | 18087 ft | 381 kts | 322° |
| 2026-05-04 19:03 | 45.68517 | 9.37883 | 18091 ft | 381 kts | 322° |
| 2026-05-04 19:04 | 45.70671 | 9.35684 | 18103 ft | 381 kts | 322° |
| 2026-05-04 19:04 | 45.72805 | 9.33502 | 18083 ft | 380 kts | 321° |
| 2026-05-04 19:04 | 45.74945 | 9.31310 | 18093 ft | 380 kts | 321° |
| 2026-05-04 19:04 | 45.77108 | 9.29094 | 18087 ft | 381 kts | 321° |
| 2026-05-04 19:05 | 45.79271 | 9.26875 | 18115 ft | 381 kts | 321° |
| 2026-05-04 19:05 | 45.81409 | 9.24677 | 18089 ft | 381 kts | 321° |
| 2026-05-04 19:05 | 45.83565 | 9.22459 | 18093 ft | 381 kts | 321° |
| 2026-05-04 19:05 | 45.85711 | 9.20251 | 18090 ft | 381 kts | 321° |
| 2026-05-04 19:06 | 45.87859 | 9.18040 | 18100 ft | 381 kts | 321° |
| 2026-05-04 19:06 | 45.90012 | 9.15819 | 18101 ft | 381 kts | 321° |
| 2026-05-04 19:06 | 45.92170 | 9.13591 | 18103 ft | 382 kts | 321° |
| 2026-05-04 19:06 | 45.94355 | 9.11330 | 18103 ft | 382 kts | 321° |
| 2026-05-04 19:07 | 45.96528 | 9.09146 | 18105 ft | 383 kts | 325° |
| 2026-05-04 19:07 | 45.98963 | 9.07476 | 18099 ft | 386 kts | 338° |
| 2026-05-04 19:07 | 46.01589 | 9.06549 | 18095 ft | 388 kts | 349° |
| 2026-05-04 19:07 | 46.04281 | 9.06074 | 18096 ft | 388 kts | 352° |
| 2026-05-04 19:08 | 46.06952 | 9.05686 | 18098 ft | 388 kts | 352° |
| 2026-05-04 19:08 | 46.09651 | 9.05290 | 18099 ft | 387 kts | 352° |
| 2026-05-04 19:08 | 46.12328 | 9.04877 | 18098 ft | 387 kts | 351° |
| 2026-05-04 19:08 | 46.14984 | 9.04452 | 18099 ft | 386 kts | 351° |
| 2026-05-04 19:09 | 46.17657 | 9.04041 | 18100 ft | 387 kts | 352° |
| 2026-05-04 19:09 | 46.20349 | 9.03680 | 18103 ft | 387 kts | 352° |
| 2026-05-04 19:09 | 46.23039 | 9.03328 | 18104 ft | 387 kts | 352° |
| 2026-05-04 19:09 | 46.25702 | 9.02979 | 18109 ft | 387 kts | 352° |
| 2026-05-04 19:10 | 46.28377 | 9.02626 | 18111 ft | 388 kts | 352° |
| 2026-05-04 19:10 | 46.31100 | 9.02264 | 18116 ft | 388 kts | 352° |
| 2026-05-04 19:10 | 46.33765 | 9.01908 | 18115 ft | 388 kts | 352° |
| 2026-05-04 19:10 | 46.36469 | 9.01544 | 18117 ft | 387 kts | 352° |
| 2026-05-04 19:11 | 46.39143 | 9.01185 | 18117 ft | 388 kts | 352° |
| 2026-05-04 19:11 | 46.41848 | 9.00821 | 18114 ft | 387 kts | 353° |
| 2026-05-04 19:11 | 46.44497 | 9.00467 | 18115 ft | 387 kts | 353° |
| 2026-05-04 19:11 | 46.47179 | 9.00108 | 18114 ft | 387 kts | 353° |
| 2026-05-04 19:12 | 46.49876 | 8.99748 | 18109 ft | 387 kts | 352° |
| 2026-05-04 19:12 | 46.55228 | 8.99029 | 18090 ft | 386 kts | 353° |
| 2026-05-04 19:12 | 46.57914 | 8.98669 | 18084 ft | 386 kts | 352° |
| 2026-05-04 19:13 | 46.60558 | 8.98313 | 18084 ft | 385 kts | 352° |
| 2026-05-04 19:13 | 46.63226 | 8.97953 | 18086 ft | 385 kts | 352° |
| 2026-05-04 19:13 | 46.65922 | 8.97587 | 18089 ft | 385 kts | 353° |
| 2026-05-04 19:13 | 46.68587 | 8.97224 | 18088 ft | 385 kts | 353° |
| 2026-05-04 19:14 | 46.71252 | 8.96862 | 18082 ft | 386 kts | 353° |
| 2026-05-04 19:14 | 46.73900 | 8.96502 | 18075 ft | 385 kts | 353° |
| 2026-05-04 19:14 | 46.76577 | 8.96140 | 18075 ft | 386 kts | 353° |
| 2026-05-04 19:14 | 46.79230 | 8.95780 | 18092 ft | 386 kts | 353° |
| 2026-05-04 19:15 | 46.81907 | 8.95417 | 18098 ft | 386 kts | 353° |
| 2026-05-04 19:15 | 46.84578 | 8.95053 | 18102 ft | 386 kts | 353° |
| 2026-05-04 19:15 | 46.87279 | 8.94684 | 18095 ft | 386 kts | 353° |
| 2026-05-04 19:15 | 46.89924 | 8.94323 | 18093 ft | 386 kts | 353° |
| 2026-05-04 19:16 | 46.92600 | 8.93956 | 18086 ft | 386 kts | 353° |
| 2026-05-04 19:16 | 46.95272 | 8.93587 | 18083 ft | 386 kts | 353° |
| 2026-05-04 19:16 | 46.97967 | 8.93216 | 18084 ft | 385 kts | 353° |
| 2026-05-04 19:16 | 47.00627 | 8.92851 | 18081 ft | 385 kts | 352° |
| 2026-05-04 19:17 | 47.03294 | 8.92485 | 18075 ft | 385 kts | 352° |
| 2026-05-04 19:17 | 47.05959 | 8.92116 | 18070 ft | 385 kts | 353° |
| 2026-05-04 19:17 | 47.08619 | 8.91747 | 18063 ft | 384 kts | 353° |
| 2026-05-04 19:17 | 47.11175 | 8.91394 | 18054 ft | 385 kts | 353° |
| 2026-05-04 19:18 | 47.13833 | 8.91027 | 18059 ft | 385 kts | 353° |
| 2026-05-04 19:18 | 47.16521 | 8.90655 | 18051 ft | 384 kts | 353° |
| 2026-05-04 19:18 | 47.19170 | 8.90289 | 18045 ft | 385 kts | 353° |
| 2026-05-04 19:18 | 47.21840 | 8.89920 | 18024 ft | 385 kts | 353° |
| 2026-05-04 19:19 | 47.24512 | 8.89550 | 18040 ft | 386 kts | 353° |
| 2026-05-04 19:19 | 47.27197 | 8.89278 | 18043 ft | 387 kts | 358° |
| 2026-05-04 19:19 | 47.29875 | 8.89619 | 18030 ft | 389 kts | 8° |
| 2026-05-04 19:19 | 47.32465 | 8.90608 | 18031 ft | 389 kts | 17° |
| 2026-05-04 19:20 | 47.35021 | 8.91909 | 18032 ft | 389 kts | 19° |
| 2026-05-04 19:20 | 47.37563 | 8.93268 | 18013 ft | 390 kts | 19° |
| 2026-05-04 19:20 | 47.40120 | 8.94623 | 18007 ft | 389 kts | 18° |
| 2026-05-04 19:20 | 47.42683 | 8.95960 | 18030 ft | 388 kts | 18° |
| 2026-05-04 19:21 | 47.45216 | 8.97271 | 18012 ft | 388 kts | 18° |
| 2026-05-04 19:21 | 47.47764 | 8.98583 | 18011 ft | 388 kts | 18° |
| 2026-05-04 19:21 | 47.50326 | 8.99903 | 18012 ft | 388 kts | 18° |
| 2026-05-04 19:21 | 47.52875 | 9.01219 | 18030 ft | 387 kts | 18° |
| 2026-05-04 19:22 | 47.55433 | 9.02541 | 18003 ft | 388 kts | 18° |
| 2026-05-04 19:22 | 47.57963 | 9.03851 | 18008 ft | 387 kts | 18° |
| 2026-05-04 19:22 | 47.60515 | 9.05176 | 18008 ft | 388 kts | 18° |
| 2026-05-04 19:22 | 47.63072 | 9.06505 | 17998 ft | 389 kts | 18° |
| 2026-05-04 19:23 | 47.65630 | 9.07835 | 17999 ft | 389 kts | 18° |
| 2026-05-04 19:23 | 47.68164 | 9.09151 | 18011 ft | 390 kts | 18° |
| 2026-05-04 19:23 | 47.70789 | 9.10321 | 17987 ft | 389 kts | 13° |
| 2026-05-04 19:23 | 47.73405 | 9.11123 | 17982 ft | 388 kts | 7° |
| 2026-05-04 19:24 | 47.76095 | 9.11643 | 17988 ft | 387 kts | 5° |
| 2026-05-04 19:24 | 47.78774 | 9.12074 | 17991 ft | 388 kts | 4° |
| 2026-05-04 19:24 | 47.81443 | 9.12483 | 18003 ft | 387 kts | 4° |
| 2026-05-04 19:24 | 47.84134 | 9.12899 | 18002 ft | 387 kts | 4° |
| 2026-05-04 19:25 | 47.86803 | 9.13334 | 17983 ft | 387 kts | 5° |
| 2026-05-04 19:25 | 47.89468 | 9.13781 | 17989 ft | 386 kts | 5° |
| 2026-05-04 19:25 | 47.92172 | 9.14230 | 17991 ft | 386 kts | 5° |
| 2026-05-04 19:25 | 47.94842 | 9.14674 | 17994 ft | 387 kts | 5° |
| 2026-05-04 19:26 | 47.97523 | 9.15118 | 17998 ft | 386 kts | 5° |
| 2026-05-04 19:26 | 48.00185 | 9.15561 | 17997 ft | 387 kts | 5° |
| 2026-05-04 19:26 | 48.02859 | 9.16100 | 17983 ft | 388 kts | 9° |
| 2026-05-04 19:26 | 48.05460 | 9.17026 | 17976 ft | 389 kts | 15° |
| 2026-05-04 19:27 | 48.08015 | 9.18372 | 17976 ft | 391 kts | 20° |
| 2026-05-04 19:27 | 48.10537 | 9.19897 | 17974 ft | 391 kts | 21° |
| 2026-05-04 19:27 | 48.13054 | 9.21461 | 17975 ft | 390 kts | 21° |
| 2026-05-04 19:27 | 48.15549 | 9.23011 | 17975 ft | 391 kts | 21° |
| 2026-05-04 19:28 | 48.18067 | 9.24566 | 17975 ft | 390 kts | 21° |
| 2026-05-04 19:28 | 48.20557 | 9.26098 | 17976 ft | 390 kts | 21° |
| 2026-05-04 19:28 | 48.23072 | 9.27643 | 17977 ft | 390 kts | 21° |
| 2026-05-04 19:28 | 48.25590 | 9.29187 | 17977 ft | 390 kts | 21° |
| 2026-05-04 19:29 | 48.28109 | 9.30734 | 17977 ft | 389 kts | 21° |
| 2026-05-04 19:29 | 48.30605 | 9.32268 | 17978 ft | 390 kts | 21° |
| 2026-05-04 19:29 | 48.33115 | 9.33813 | 17977 ft | 390 kts | 21° |
| 2026-05-04 19:29 | 48.35672 | 9.35148 | 17968 ft | 389 kts | 11° |
| 2026-05-04 19:30 | 48.38347 | 9.35541 | 17972 ft | 386 kts | 356° |
| 2026-05-04 19:30 | 48.40997 | 9.35002 | 17982 ft | 384 kts | 346° |
| 2026-05-04 19:30 | 48.43608 | 9.34146 | 17982 ft | 385 kts | 345° |
| 2026-05-04 19:30 | 48.46218 | 9.33248 | 17982 ft | 385 kts | 345° |
| 2026-05-04 19:31 | 48.48838 | 9.32364 | 17979 ft | 385 kts | 345° |
| 2026-05-04 19:31 | 48.51429 | 9.31517 | 17975 ft | 385 kts | 345° |
| 2026-05-04 19:31 | 48.54083 | 9.30664 | 17976 ft | 386 kts | 346° |
| 2026-05-04 19:31 | 48.56708 | 9.29840 | 17970 ft | 386 kts | 348° |
| 2026-05-04 19:32 | 48.59359 | 9.29803 | 17942 ft | 389 kts | 10° |
| 2026-05-04 19:32 | 48.61850 | 9.31411 | 17955 ft | 391 kts | 36° |
| 2026-05-04 19:32 | 48.63707 | 9.34405 | 17975 ft | 388 kts | 59° |
| 2026-05-04 19:32 | 48.64726 | 9.38145 | 17989 ft | 386 kts | 75° |
| 2026-05-04 19:33 | 48.65480 | 9.42000 | 17993 ft | 386 kts | 75° |
| 2026-05-04 19:33 | 48.66246 | 9.45900 | 17987 ft | 385 kts | 75° |
| 2026-05-04 19:33 | 48.67030 | 9.49722 | 17793 ft | 380 kts | 74° |
| 2026-05-04 19:33 | 48.67838 | 9.53536 | 17274 ft | 380 kts | 73° |
| 2026-05-04 19:34 | 48.68651 | 9.57331 | 16775 ft | 378 kts | 74° |
| 2026-05-04 19:34 | 48.69388 | 9.61126 | 16325 ft | 374 kts | 76° |
| 2026-05-04 19:34 | 48.70087 | 9.64891 | 15860 ft | 372 kts | 76° |
| 2026-05-04 19:34 | 48.70769 | 9.68617 | 15403 ft | 369 kts | 77° |
| 2026-05-04 19:35 | 48.71440 | 9.72314 | 14961 ft | 366 kts | 77° |
| 2026-05-04 19:35 | 48.72116 | 9.76022 | 14511 ft | 364 kts | 77° |
| 2026-05-04 19:35 | 48.72784 | 9.79660 | 14293 ft | 354 kts | 77° |
| 2026-05-04 19:35 | 48.73428 | 9.83164 | 14111 ft | 344 kts | 77° |
| 2026-05-04 19:36 | 48.74081 | 9.86619 | 13927 ft | 335 kts | 73° |
| 2026-05-04 19:36 | 48.75244 | 9.89579 | 13708 ft | 330 kts | 46° |
| 2026-05-04 19:36 | 48.77173 | 9.91346 | 13457 ft | 323 kts | 15° |
| 2026-05-04 19:36 | 48.79382 | 9.91479 | 13076 ft | 317 kts | 344° |
| 2026-05-04 19:37 | 48.81274 | 9.89991 | 12666 ft | 307 kts | 313° |
| 2026-05-04 19:37 | 48.82368 | 9.87310 | 12265 ft | 296 kts | 281° |
| 2026-05-04 19:37 | 48.82436 | 9.84285 | 11816 ft | 291 kts | 257° |
| 2026-05-04 19:37 | 48.81716 | 9.81433 | 10962 ft | 294 kts | 235° |
| 2026-05-04 19:38 | 48.80413 | 9.79045 | 9891 ft | 302 kts | 229° |
| 2026-05-04 19:38 | 48.79252 | 9.76406 | 8702 ft | 312 kts | 242° |
| 2026-05-04 19:38 | 48.78475 | 9.73325 | 7742 ft | 312 kts | 254° |
| 2026-05-04 19:38 | 48.77996 | 9.70167 | 7204 ft | 310 kts | 257° |
| 2026-05-04 19:39 | 48.77512 | 9.67004 | 6787 ft | 300 kts | 255° |
| 2026-05-04 19:39 | 48.76999 | 9.64012 | 6382 ft | 286 kts | 254° |
| 2026-05-04 19:39 | 48.76480 | 9.61211 | 6006 ft | 273 kts | 253° |
| 2026-05-04 19:39 | 48.75961 | 9.58515 | 5646 ft | 260 kts | 253° |
| 2026-05-04 19:40 | 48.75462 | 9.55956 | 5306 ft | 248 kts | 254° |
| 2026-05-04 19:40 | 48.74981 | 9.53490 | 4982 ft | 239 kts | 254° |
| 2026-05-04 19:40 | 48.74530 | 9.51179 | 4712 ft | 216 kts | 255° |
| 2026-05-04 19:40 | 48.74134 | 9.49142 | 4530 ft | 192 kts | 255° |
| 2026-05-04 19:41 | 48.73775 | 9.47281 | 4252 ft | 177 kts | 255° |
| 2026-05-04 19:41 | 48.73443 | 9.45567 | 3981 ft | 162 kts | 256° |
| 2026-05-04 19:41 | 48.73143 | 9.44009 | 3738 ft | 150 kts | 256° |
| 2026-05-04 19:41 | 48.72854 | 9.42503 | 3540 ft | 149 kts | 257° |
| 2026-05-04 19:42 | 48.72566 | 9.40995 | 3354 ft | 148 kts | 256° |
| 2026-05-04 19:42 | 48.72279 | 9.39498 | 3172 ft | 148 kts | 257° |
| 2026-05-04 19:42 | 48.71996 | 9.38020 | 2992 ft | 147 kts | 257° |
| 2026-05-04 19:42 | 48.71714 | 9.36549 | 2808 ft | 146 kts | 258° |
| 2026-05-04 19:43 | 48.71434 | 9.35083 | 2620 ft | 145 kts | 258° |
| 2026-05-04 19:43 | 48.71155 | 9.33619 | 2428 ft | 144 kts | 257° |
| 2026-05-04 19:43 | 48.70882 | 9.32180 | 2234 ft | 143 kts | 257° |
| 2026-05-04 19:43 | 48.70610 | 9.30763 | 2050 ft | 142 kts | 256° |
| 2026-05-04 19:44 | 48.70335 | 9.29334 | 1880 ft | 142 kts | 257° |
| 2026-05-04 19:44 | 48.70064 | 9.27902 | 1678 ft | 141 kts | 257° |
| 2026-05-04 19:44 | 48.69793 | 9.26475 | 1506 ft | 141 kts | 256° |
| 2026-05-04 19:44 | 48.69529 | 9.25066 | 1316 ft | 140 kts | 256° |
| 2026-05-04 19:45 | 48.69265 | 9.23655 | 1208 ft | 134 kts | 256° |
| 2026-05-04 19:45 | 48.69043 | 9.22475 | 1223 ft | 92 kts | 253° |
| 2026-05-04 19:45 | 48.68911 | 9.21796 | 1239 ft | 49 kts | 253° |
| 2026-05-04 19:45 | 48.68833 | 9.21382 | 1253 ft | 33 kts | 255° |
| 2026-05-04 19:46 | 48.68819 | 9.21106 | 1261 ft | 18 kts | 277° |
| 2026-05-04 19:46 | 48.68840 | 9.20957 | 1265 ft | 7 kts | 283° |
| 2026-05-04 19:46 | 48.68850 | 9.20895 | 1267 ft | 4 kts | 283° |
| 2026-05-04 19:46 | 48.68858 | 9.20847 | 1269 ft | 8 kts | 285° |
| 2026-05-04 19:47 | 48.68871 | 9.20777 | 1271 ft | 2 kts | 286° |
| 2026-05-04 19:47 | 48.68874 | 9.20765 | 1271 ft | 0 kts | 288° |
| 2026-05-04 19:47 | 48.68877 | 9.20753 | 1271 ft | 5 kts | 301° |
| 2026-05-04 19:48 | 48.68898 | 9.20716 | 1272 ft | 3 kts | 316° |
| 2026-05-04 19:48 | 48.68917 | 9.20691 | 1273 ft | 6 kts | 318° |
| 2026-05-04 19:48 | 48.68945 | 9.20629 | 1274 ft | 0 kts | 282° |
| 2026-05-04 19:48 | 48.68945 | 9.20630 | 1274 ft | 1 kts | 285° |
| 2026-05-04 19:49 | 48.68957 | 9.20615 | 1275 ft | 4 kts | 328° |
| 2026-05-04 19:49 | 48.68996 | 9.20574 | 1276 ft | 6 kts | 318° |
| 2026-05-04 19:49 | 48.69020 | 9.20538 | 1278 ft | 4 kts | 314° |
| 2026-05-04 19:49 | 48.69059 | 9.20474 | 1280 ft | 10 kts | 305° |
| 2026-05-04 19:50 | 48.69056 | 9.20385 | 1282 ft | 7 kts | 252° |
| 2026-05-04 19:50 | 48.69044 | 9.20328 | 1283 ft | 5 kts | 253° |
| 2026-05-04 19:50 | 48.69024 | 9.20226 | 1287 ft | 11 kts | 253° |
| 2026-05-04 19:50 | 48.68998 | 9.20142 | 1290 ft | 6 kts | 215° |
| 2026-05-04 19:51 | 48.68959 | 9.20143 | 1289 ft | 5 kts | 162° |
| 2026-05-04 19:51 | 48.68935 | 9.20153 | 1288 ft | 0 kts | 164° |